createdAt,value
2023-02-11T00:00:52.121Z,100573.84
2023-02-11T00:01:54.376Z,100569.47
2023-02-11T00:02:56.296Z,100566.00
2023-02-11T00:03:59.222Z,100566.88
2023-02-11T00:05:02.749Z,100571.25
2023-02-11T00:06:11.211Z,100566.06
2023-02-11T00:07:13.005Z,100563.50
2023-02-11T00:08:17.210Z,100562.66
2023-02-11T00:09:18.995Z,100574.03
2023-02-11T00:10:20.853Z,100558.44
2023-02-11T00:11:30.712Z,100552.31
2023-02-11T00:12:32.732Z,100565.22
2023-02-11T00:13:34.593Z,100565.22
2023-02-11T00:14:36.400Z,100566.88
2023-02-11T00:15:38.485Z,100565.13
2023-02-11T00:16:40.616Z,100568.66
2023-02-11T00:17:42.468Z,100558.31
2023-02-11T00:18:44.632Z,100566.09
2023-02-11T00:19:50.454Z,100557.56
2023-02-11T00:20:52.382Z,100554.97
2023-02-11T00:21:54.292Z,100546.34
2023-02-11T00:22:56.115Z,100554.97
2023-02-11T00:24:00.002Z,100556.72
2023-02-11T00:25:02.236Z,100549.84
2023-02-11T00:26:11.860Z,100555.94
2023-02-11T00:27:13.719Z,100545.59
2023-02-11T00:28:15.606Z,100548.94
2023-02-11T00:29:17.596Z,100542.97
2023-02-11T00:30:19.758Z,100543.88
2023-02-11T00:31:23.404Z,100539.59
2023-02-11T00:32:25.330Z,100530.91
2023-02-11T00:33:27.280Z,100531.91
2023-02-11T00:34:29.052Z,100534.50
2023-02-11T00:35:30.927Z,100511.13
2023-02-11T00:36:32.979Z,100513.72
2023-02-11T00:37:36.591Z,100520.66
2023-02-11T00:38:38.522Z,100512.88
2023-02-11T00:39:40.363Z,100520.72
2023-02-11T00:40:42.281Z,100520.75
2023-02-11T00:41:44.124Z,100519.88
2023-02-11T00:42:46.090Z,100518.16
2023-02-11T00:43:48.052Z,100525.13
2023-02-11T00:44:49.915Z,100521.59
2023-02-11T00:45:52.140Z,100525.91
2023-02-11T00:46:54.158Z,100517.34
2023-02-11T00:47:56.203Z,100519.88
2023-02-11T00:48:58.541Z,100518.25
2023-02-11T00:50:01.064Z,100513.81
2023-02-11T00:51:05.019Z,100512.09
2023-02-11T00:52:07.296Z,100517.34
2023-02-11T00:53:09.135Z,100506.13
2023-02-11T00:54:11.095Z,100508.66
2023-02-11T00:55:12.957Z,100511.22
2023-02-11T00:56:14.823Z,100509.50
2023-02-11T00:57:16.610Z,100509.47
2023-02-11T00:58:18.424Z,100499.16
2023-02-11T00:59:20.381Z,100516.41
2023-02-11T01:00:22.377Z,100517.25
2023-02-11T01:01:24.498Z,100519.84
2023-02-11T01:02:26.442Z,100515.47
2023-02-11T01:03:28.474Z,100518.06
2023-02-11T01:04:30.706Z,100519.00
2023-02-11T01:05:32.820Z,100517.25
2023-02-11T01:06:34.706Z,100518.06
2023-02-11T01:07:36.602Z,100522.44
2023-02-11T01:08:39.117Z,100520.66
2023-02-11T01:09:41.047Z,100521.59
2023-02-11T01:10:44.087Z,100521.59
2023-02-11T01:11:45.923Z,100518.16
2023-02-11T01:12:48.040Z,100518.16
2023-02-11T01:13:51.032Z,100519.00
2023-02-11T01:14:53.021Z,100521.59
2023-02-11T01:15:55.872Z,100517.25
2023-02-11T01:16:58.026Z,100532.78
2023-02-11T01:17:59.890Z,100527.53
2023-02-11T01:19:01.984Z,100519.75
2023-02-11T01:20:06.172Z,100522.44
2023-02-11T01:21:08.131Z,100519.78
2023-02-11T01:22:10.002Z,100524.97
2023-02-11T01:23:11.922Z,100526.69
2023-02-11T01:24:13.921Z,100524.94
2023-02-11T01:25:16.172Z,100517.16
2023-02-11T01:26:19.656Z,100516.28
2023-02-11T01:27:21.596Z,100511.97
2023-02-11T01:28:26.448Z,100517.16
2023-02-11T01:29:28.360Z,100515.38
2023-02-11T01:30:30.404Z,100506.75
2023-02-11T01:31:32.800Z,100517.94
2023-02-11T01:32:35.294Z,100507.50
2023-02-11T01:33:37.112Z,100511.84
2023-02-11T01:34:38.974Z,100499.66
2023-02-11T01:35:41.030Z,100515.25
2023-02-11T01:36:42.951Z,100507.44
2023-02-11T01:37:45.360Z,100515.19
2023-02-11T01:38:47.369Z,100516.06
2023-02-11T01:39:49.270Z,100508.38
2023-02-11T01:40:57.241Z,100514.38
2023-02-11T01:41:59.240Z,100511.81
2023-02-11T01:43:01.182Z,100516.06
2023-02-11T01:44:26.976Z,100514.31
2023-02-11T01:45:50.013Z,100522.16
2023-02-11T01:46:51.976Z,100520.47
2023-02-11T01:47:53.900Z,100518.72
2023-02-11T01:49:18.443Z,100518.66
2023-02-11T01:50:20.323Z,100521.22
2023-02-11T01:51:33.489Z,100511.72
2023-02-11T01:52:39.159Z,100516.03
2023-02-11T01:54:00.722Z,100515.97
2023-02-11T01:55:25.209Z,100501.34
2023-02-11T01:56:47.823Z,100505.63
2023-02-11T01:57:56.427Z,100499.59
2023-02-11T01:59:06.077Z,100491.78
2023-02-11T02:00:16.450Z,100511.63
2023-02-11T02:01:24.742Z,100494.38
2023-02-11T02:03:11.596Z,100499.59
2023-02-11T02:04:19.051Z,100490.94
2023-02-11T02:05:31.163Z,100485.81
2023-02-11T02:06:50.872Z,100485.75
2023-02-11T02:08:00.511Z,100484.91
2023-02-11T02:09:09.597Z,100477.13
2023-02-11T02:10:17.977Z,100473.69
2023-02-11T02:11:19.986Z,100483.19
2023-02-11T02:12:21.969Z,100487.47
2023-02-11T02:13:24.748Z,100470.19
2023-02-11T02:14:26.967Z,100478.06
2023-02-11T02:15:34.580Z,100469.38
2023-02-11T02:16:37.710Z,100463.41
2023-02-11T02:17:46.951Z,100466.81
2023-02-11T02:18:51.666Z,100455.56
2023-02-11T02:20:30.848Z,100464.28
2023-02-11T02:21:54.680Z,100464.28
2023-02-11T02:23:18.096Z,100465.13
2023-02-11T02:24:46.641Z,100469.38
2023-02-11T02:26:00.691Z,100461.69
2023-02-11T02:27:02.724Z,100450.47
2023-02-11T02:28:16.591Z,100454.75
2023-02-11T02:29:36.807Z,100458.16
2023-02-11T02:30:54.835Z,100450.41
2023-02-11T02:32:30.201Z,100466.81
2023-02-11T02:33:41.836Z,100453.03
2023-02-11T02:34:56.566Z,100459.09
2023-02-11T02:36:24.026Z,100458.22
2023-02-11T02:37:56.615Z,100456.50
2023-02-11T02:39:07.932Z,100454.75
2023-02-11T02:40:17.028Z,100452.13
2023-02-11T02:41:23.362Z,100441.75
2023-02-11T02:42:26.090Z,100454.75
2023-02-11T02:43:29.347Z,100450.47
2023-02-11T02:44:32.208Z,100441.81
2023-02-11T02:45:34.261Z,100439.25
2023-02-11T02:46:36.748Z,100440.13
2023-02-11T02:47:38.613Z,100446.19
2023-02-11T02:48:40.455Z,100437.53
2023-02-11T02:49:42.305Z,100429.75
2023-02-11T02:50:44.752Z,100432.34
2023-02-11T02:52:07.662Z,100439.31
2023-02-11T02:53:35.994Z,100428.97
2023-02-11T02:54:40.769Z,100438.47
2023-02-11T02:55:45.630Z,100435.88
2023-02-11T02:56:58.136Z,100437.63
2023-02-11T02:58:02.905Z,100439.41
2023-02-11T02:59:40.100Z,100435.13
2023-02-11T03:00:51.762Z,100437.78
2023-02-11T03:02:08.611Z,100437.78
2023-02-11T03:03:36.058Z,100426.56
2023-02-11T03:04:53.040Z,100431.66
2023-02-11T03:06:15.742Z,100430.88
2023-02-11T03:07:29.805Z,100437.81
2023-02-11T03:08:36.823Z,100430.97
2023-02-11T03:10:17.222Z,100425.78
2023-02-11T03:11:21.779Z,100421.47
2023-02-11T03:12:27.929Z,100414.56
2023-02-11T03:13:34.853Z,100415.44
2023-02-11T03:14:37.834Z,100422.31
2023-02-11T03:15:44.480Z,100415.41
2023-02-11T03:16:49.422Z,100405.06
2023-02-11T03:17:53.897Z,100406.81
2023-02-11T03:19:20.677Z,100401.63
2023-02-11T03:20:23.410Z,100411.13
2023-02-11T03:21:26.200Z,100400.81
2023-02-11T03:22:38.968Z,100414.66
2023-02-11T03:24:05.318Z,100412.06
2023-02-11T03:25:07.811Z,100406.09
2023-02-11T03:26:23.457Z,100407.84
2023-02-11T03:27:46.368Z,100419.13
2023-02-11T03:29:09.636Z,100410.50
2023-02-11T03:30:15.403Z,100405.47
2023-02-11T03:31:26.543Z,100409.72
2023-02-11T03:32:41.533Z,100400.22
2023-02-11T03:33:50.735Z,100403.75
2023-02-11T03:34:52.642Z,100403.66
2023-02-11T03:35:59.381Z,100398.47
2023-02-11T03:37:08.119Z,100401.06
2023-02-11T03:38:16.307Z,100398.47
2023-02-11T03:39:25.563Z,100402.81
2023-02-11T03:40:32.667Z,100400.22
2023-02-11T03:41:36.035Z,100401.09
2023-02-11T03:43:07.611Z,100392.53
2023-02-11T03:44:12.886Z,100402.09
2023-02-11T03:45:19.684Z,100394.31
2023-02-11T03:46:32.575Z,100392.63
2023-02-11T03:47:37.242Z,100389.16
2023-02-11T03:48:47.162Z,100389.16
2023-02-11T03:49:51.657Z,100398.66
2023-02-11T03:50:55.733Z,100401.19
2023-02-11T03:51:59.015Z,100403.81
2023-02-11T03:53:02.936Z,100404.75
2023-02-11T03:54:10.765Z,100403.03
2023-02-11T03:55:17.667Z,100408.22
2023-02-11T03:56:24.602Z,100403.91
2023-02-11T03:57:26.607Z,100403.91
2023-02-11T03:58:28.606Z,100407.38
2023-02-11T03:59:30.463Z,100403.91
2023-02-11T04:00:37.477Z,100398.72
2023-02-11T04:01:39.319Z,100395.28
2023-02-11T04:02:41.856Z,100400.47
2023-02-11T04:03:43.646Z,100396.16
2023-02-11T04:04:46.269Z,100402.25
2023-02-11T04:05:48.697Z,100393.56
2023-02-11T04:06:50.911Z,100393.63
2023-02-11T04:07:52.747Z,100397.97
2023-02-11T04:08:54.847Z,100391.03
2023-02-11T04:09:56.634Z,100395.38
2023-02-11T04:10:58.802Z,100396.25
2023-02-11T04:12:00.584Z,100397.16
2023-02-11T04:13:02.455Z,100390.19
2023-02-11T04:14:04.804Z,100391.97
2023-02-11T04:15:07.576Z,100398.91
2023-02-11T04:16:09.670Z,100394.56
2023-02-11T04:17:12.793Z,100400.56
2023-02-11T04:18:14.752Z,100397.16
2023-02-11T04:19:16.585Z,100395.44
2023-02-11T04:20:18.488Z,100398.03
2023-02-11T04:21:20.414Z,100397.16
2023-02-11T04:22:22.296Z,100395.44
2023-02-11T04:23:24.118Z,100398.03
2023-02-11T04:24:25.981Z,100398.03
2023-02-11T04:25:27.814Z,100397.22
2023-02-11T04:26:29.722Z,100402.41
2023-02-11T04:27:32.153Z,100396.38
2023-02-11T04:28:35.239Z,100397.22
2023-02-11T04:29:37.066Z,100393.88
2023-02-11T04:30:39.294Z,100392.94
2023-02-11T04:31:41.302Z,100383.50
2023-02-11T04:32:43.207Z,100392.94
2023-02-11T04:33:45.065Z,100395.59
2023-02-11T04:34:46.869Z,100394.72
2023-02-11T04:35:49.378Z,100397.25
2023-02-11T04:36:51.494Z,100392.94
2023-02-11T04:37:53.303Z,100393.78
2023-02-11T04:38:55.278Z,100387.75
2023-02-11T04:39:57.070Z,100396.38
2023-02-11T04:41:00.600Z,100397.31
2023-02-11T04:42:02.587Z,100390.34
2023-02-11T04:43:04.593Z,100391.25
2023-02-11T04:44:06.623Z,100387.75
2023-02-11T04:45:08.942Z,100393.00
2023-02-11T04:46:11.164Z,100382.63
2023-02-11T04:47:15.448Z,100387.75
2023-02-11T04:48:17.311Z,100387.81
2023-02-11T04:49:19.449Z,100381.78
2023-02-11T04:50:21.487Z,100380.97
2023-02-11T04:51:24.209Z,100379.19
2023-02-11T04:52:26.256Z,100376.66
2023-02-11T04:53:28.206Z,100377.53
2023-02-11T04:54:30.066Z,100373.22
2023-02-11T04:55:31.923Z,100369.78
2023-02-11T04:56:33.863Z,100368.03
2023-02-11T04:57:35.817Z,100367.97
2023-02-11T04:58:37.697Z,100371.41
2023-02-11T04:59:40.820Z,100373.94
2023-02-11T05:00:42.684Z,100370.47
2023-02-11T05:01:44.597Z,100362.78
2023-02-11T05:02:46.819Z,100350.69
2023-02-11T05:03:49.354Z,100353.34
2023-02-11T05:04:51.326Z,100357.69
2023-02-11T05:05:53.554Z,100360.25
2023-02-11T05:06:58.302Z,100349.88
2023-02-11T05:08:00.577Z,100362.88
2023-02-11T05:09:02.437Z,100363.75
2023-02-11T05:10:05.156Z,100355.16
2023-02-11T05:11:08.442Z,100357.75
2023-02-11T05:12:10.329Z,100353.44
2023-02-11T05:13:12.187Z,100349.13
2023-02-11T05:14:14.157Z,100349.13
2023-02-11T05:15:16.295Z,100348.31
2023-02-11T05:16:18.843Z,100350.91
2023-02-11T05:17:20.745Z,100365.63
2023-02-11T05:18:22.739Z,100358.69
2023-02-11T05:19:24.719Z,100357.00
2023-02-11T05:20:26.556Z,100349.13
2023-02-11T05:21:28.500Z,100353.50
2023-02-11T05:22:30.653Z,100357.00
2023-02-11T05:23:32.550Z,100370.84
2023-02-11T05:24:35.196Z,100361.34
2023-02-11T05:25:37.778Z,100357.03
2023-02-11T05:26:39.801Z,100357.91
2023-02-11T05:27:42.008Z,100359.72
2023-02-11T05:28:45.148Z,100358.00
2023-02-11T05:29:46.943Z,100356.25
2023-02-11T05:30:49.003Z,100357.03
2023-02-11T05:31:50.796Z,100355.38
2023-02-11T05:32:52.701Z,100363.09
2023-02-11T05:33:54.623Z,100366.63
2023-02-11T05:34:56.528Z,100356.19
2023-02-11T05:36:00.548Z,100359.66
2023-02-11T05:37:02.485Z,100352.78
2023-02-11T05:38:04.350Z,100350.19
2023-02-11T05:39:06.332Z,100351.06
2023-02-11T05:40:08.613Z,100359.72
2023-02-11T05:41:12.064Z,100349.38
2023-02-11T05:42:14.467Z,100352.88
2023-02-11T05:43:16.270Z,100358.00
2023-02-11T05:44:18.219Z,100345.03
2023-02-11T05:45:20.341Z,100351.16
2023-02-11T05:46:22.194Z,100357.25
2023-02-11T05:47:24.457Z,100353.81
2023-02-11T05:48:26.497Z,100354.69
2023-02-11T05:49:28.401Z,100350.44
2023-02-11T05:50:30.333Z,100360.81
2023-02-11T05:51:32.372Z,100353.91
2023-02-11T05:52:34.307Z,100353.09
2023-02-11T05:53:36.504Z,100353.19
2023-02-11T05:54:38.388Z,100350.66
2023-02-11T05:55:40.264Z,100356.69
2023-02-11T05:56:44.646Z,100356.78
2023-02-11T05:57:46.759Z,100350.75
2023-02-11T05:58:48.589Z,100355.09
2023-02-11T05:59:50.406Z,100355.09
2023-02-11T06:00:52.339Z,100353.41
2023-02-11T06:01:54.294Z,100353.47
2023-02-11T06:02:56.239Z,100355.25
2023-02-11T06:03:58.461Z,100362.25
2023-02-11T06:05:00.484Z,100361.47
2023-02-11T06:06:02.372Z,100355.53
2023-02-11T06:07:04.444Z,100353.03
2023-02-11T06:08:06.362Z,100361.81
2023-02-11T06:09:10.387Z,100356.75
2023-02-11T06:10:12.867Z,100357.69
2023-02-11T06:11:16.143Z,100353.50
2023-02-11T06:12:18.100Z,100358.75
2023-02-11T06:13:19.941Z,100359.69
2023-02-11T06:14:22.005Z,100356.25
2023-02-11T06:15:23.935Z,100351.13
2023-02-11T06:16:25.998Z,100361.56
2023-02-11T06:17:31.826Z,100359.91
2023-02-11T06:18:36.385Z,100358.22
2023-02-11T06:19:38.350Z,100358.28
2023-02-11T06:20:41.667Z,100365.22
2023-02-11T06:21:44.605Z,100365.22
2023-02-11T06:22:46.852Z,100358.34
2023-02-11T06:23:49.323Z,100369.66
2023-02-11T06:25:01.241Z,100365.34
2023-02-11T06:26:07.466Z,100362.81
2023-02-11T06:27:09.705Z,100360.22
2023-02-11T06:28:11.718Z,100353.28
2023-02-11T06:29:14.139Z,100358.47
2023-02-11T06:30:16.131Z,100355.03
2023-02-11T06:31:19.384Z,100349.84
2023-02-11T06:32:42.337Z,100354.22
2023-02-11T06:33:44.147Z,100349.09
2023-02-11T06:34:46.389Z,100349.97
2023-02-11T06:35:48.454Z,100352.56
2023-02-11T06:36:50.415Z,100357.81
2023-02-11T06:37:54.102Z,100357.88
2023-02-11T06:38:56.242Z,100357.94
2023-02-11T06:39:58.266Z,100362.28
2023-02-11T06:41:00.175Z,100351.00
2023-02-11T06:42:02.150Z,100351.94
2023-02-11T06:43:04.192Z,100350.22
2023-02-11T06:44:06.617Z,100344.16
2023-02-11T06:45:11.119Z,100351.97
2023-02-11T06:46:13.822Z,100351.91
2023-02-11T06:47:15.700Z,100351.91
2023-02-11T06:48:17.755Z,100351.03
2023-02-11T06:49:19.965Z,100345.03
2023-02-11T06:50:21.942Z,100346.69
2023-02-11T06:51:23.998Z,100336.38
2023-02-11T06:52:26.193Z,100343.28
2023-02-11T06:53:28.356Z,100346.69
2023-02-11T06:54:30.295Z,100348.41
2023-02-11T06:55:32.256Z,100344.91
2023-02-11T06:56:35.127Z,100343.16
2023-02-11T06:57:37.117Z,100344.91
2023-02-11T06:58:39.590Z,100339.72
2023-02-11T06:59:41.886Z,100332.84
2023-02-11T07:00:43.891Z,100347.53
2023-02-11T07:01:45.772Z,100345.78
2023-02-11T07:02:47.690Z,100346.63
2023-02-11T07:03:50.449Z,100341.44
2023-02-11T07:04:52.418Z,100349.22
2023-02-11T07:05:54.283Z,100345.69
2023-02-11T07:06:58.496Z,100355.22
2023-02-11T07:08:00.488Z,100354.31
2023-02-11T07:09:02.460Z,100347.38
2023-02-11T07:10:06.010Z,100342.19
2023-02-11T07:11:24.374Z,100345.63
2023-02-11T07:12:26.435Z,100343.03
2023-02-11T07:13:28.317Z,100337.78
2023-02-11T07:14:30.227Z,100344.66
2023-02-11T07:15:32.128Z,100349.78
2023-02-11T07:16:35.377Z,100347.25
2023-02-11T07:17:37.478Z,100356.75
2023-02-11T07:18:39.869Z,100344.66
2023-02-11T07:19:41.742Z,100349.84
2023-02-11T07:20:43.773Z,100351.63
2023-02-11T07:21:45.707Z,100346.38
2023-02-11T07:22:47.671Z,100347.31
2023-02-11T07:23:49.566Z,100344.78
2023-02-11T07:24:51.411Z,100338.78
2023-02-11T07:25:53.532Z,100337.19
2023-02-11T07:26:55.415Z,100338.09
2023-02-11T07:27:57.515Z,100347.69
2023-02-11T07:28:59.425Z,100345.16
2023-02-11T07:30:01.613Z,100345.19
2023-02-11T07:31:11.738Z,100344.41
2023-02-11T07:32:14.675Z,100348.78
2023-02-11T07:33:16.610Z,100354.03
2023-02-11T07:34:18.513Z,100345.44
2023-02-11T07:35:20.439Z,100342.03
2023-02-11T07:36:23.100Z,100354.22
2023-02-11T07:37:25.143Z,100349.94
2023-02-11T07:38:27.382Z,100344.75
2023-02-11T07:39:29.615Z,100350.88
2023-02-11T07:40:31.779Z,100349.19
2023-02-11T07:41:37.797Z,100357.09
2023-02-11T07:42:41.842Z,100344.16
2023-02-11T07:43:45.064Z,100342.50
2023-02-11T07:44:49.311Z,100337.34
2023-02-11T07:45:52.390Z,100337.47
2023-02-11T07:46:54.454Z,100336.59
2023-02-11T07:47:56.695Z,100334.06
2023-02-11T07:48:58.861Z,100348.03
2023-02-11T07:50:00.703Z,100342.88
2023-02-11T07:51:11.800Z,100348.13
2023-02-11T07:52:13.705Z,100352.50
2023-02-11T07:53:16.270Z,100352.56
2023-02-11T07:54:18.405Z,100356.91
2023-02-11T07:55:20.243Z,100357.72
2023-02-11T07:56:22.654Z,100346.44
2023-02-11T07:57:24.745Z,100351.63
2023-02-11T07:58:26.507Z,100353.31
2023-02-11T07:59:28.322Z,100350.78
2023-02-11T08:00:30.269Z,100355.06
2023-02-11T08:01:32.309Z,100354.25
2023-02-11T08:02:34.287Z,100355.13
2023-02-11T08:03:37.215Z,100349.91
2023-02-11T08:04:39.177Z,100343.84
2023-02-11T08:05:41.103Z,100348.28
2023-02-11T08:06:44.153Z,100340.53
2023-02-11T08:07:46.028Z,100337.03
2023-02-11T08:08:48.595Z,100339.63
2023-02-11T08:09:50.537Z,100340.53
2023-02-11T08:10:52.515Z,100336.25
2023-02-11T08:11:54.778Z,100338.03
2023-02-11T08:12:56.712Z,100338.03
2023-02-11T08:13:58.865Z,100338.94
2023-02-11T08:15:00.725Z,100338.13
2023-02-11T08:16:03.342Z,100329.50
2023-02-11T08:17:05.487Z,100334.72
2023-02-11T08:18:08.744Z,100339.00
2023-02-11T08:19:13.216Z,100336.41
2023-02-11T08:20:15.690Z,100336.41
2023-02-11T08:21:17.977Z,100332.06
2023-02-11T08:22:19.808Z,100329.50
2023-02-11T08:23:21.805Z,100333.00
2023-02-11T08:24:24.181Z,100334.78
2023-02-11T08:25:26.278Z,100319.25
2023-02-11T08:26:30.252Z,100324.50
2023-02-11T08:27:32.180Z,100314.97
2023-02-11T08:28:41.652Z,100315.94
2023-02-11T08:29:43.812Z,100325.53
2023-02-11T08:30:45.693Z,100323.81
2023-02-11T08:31:48.136Z,100319.50
2023-02-11T08:32:50.236Z,100322.03
2023-02-11T08:33:54.350Z,100316.84
2023-02-11T08:34:56.413Z,100316.03
2023-02-11T08:35:58.538Z,100311.75
2023-02-11T08:37:00.548Z,100315.22
2023-02-11T08:38:02.318Z,100316.06
2023-02-11T08:39:22.690Z,100321.31
2023-02-11T08:40:25.545Z,100312.72
2023-02-11T08:41:27.379Z,100314.47
2023-02-11T08:42:29.270Z,100312.78
2023-02-11T08:43:31.878Z,100310.19
2023-02-11T08:44:33.652Z,100316.25
2023-02-11T08:45:35.645Z,100318.94
2023-02-11T08:46:37.717Z,100325.91
2023-02-11T08:47:40.105Z,100315.50
2023-02-11T08:48:42.106Z,100321.59
2023-02-11T08:49:44.082Z,100321.53
2023-02-11T08:50:46.013Z,100321.53
2023-02-11T08:51:48.836Z,100316.34
2023-02-11T08:52:52.587Z,100319.81
2023-02-11T08:53:55.545Z,100322.41
2023-02-11T08:54:57.512Z,100318.06
2023-02-11T08:55:59.498Z,100322.31
2023-02-11T08:57:02.095Z,100318.84
2023-02-11T08:58:04.087Z,100316.25
2023-02-11T08:59:07.489Z,100309.34
2023-02-11T09:00:11.229Z,100308.53
2023-02-11T09:01:15.601Z,100305.16
2023-02-11T09:02:17.791Z,100303.38
2023-02-11T09:03:19.796Z,100321.59
2023-02-11T09:04:21.628Z,100312.91
2023-02-11T09:05:23.520Z,100303.38
2023-02-11T09:06:26.966Z,100319.91
2023-02-11T09:07:29.145Z,100323.31
2023-02-11T09:08:30.966Z,100315.56
2023-02-11T09:09:33.231Z,100314.66
2023-02-11T09:10:35.354Z,100311.09
2023-02-11T09:11:37.555Z,100317.22
2023-02-11T09:12:39.731Z,100319.81
2023-02-11T09:13:43.325Z,100316.38
2023-02-11T09:14:45.154Z,100320.72
2023-02-11T09:15:47.119Z,100322.47
2023-02-11T09:16:49.995Z,100326.78
2023-02-11T09:17:52.068Z,100321.59
2023-02-11T09:18:56.496Z,100328.47
2023-02-11T09:19:58.392Z,100327.56
2023-02-11T09:21:09.183Z,100326.72
2023-02-11T09:22:11.147Z,100332.78
2023-02-11T09:23:13.046Z,100333.59
2023-02-11T09:24:15.356Z,100330.94
2023-02-11T09:25:17.270Z,100331.72
2023-02-11T09:26:24.294Z,100326.53
2023-02-11T09:27:26.284Z,100338.56
2023-02-11T09:28:28.251Z,100335.94
2023-02-11T09:29:30.151Z,100334.19
2023-02-11T09:30:32.122Z,100333.22
2023-02-11T09:31:35.127Z,100338.44
2023-02-11T09:32:37.039Z,100339.34
2023-02-11T09:33:42.226Z,100338.44
2023-02-11T09:34:44.016Z,100343.63
2023-02-11T09:35:45.946Z,100338.38
2023-02-11T09:36:47.760Z,100343.53
2023-02-11T09:37:51.235Z,100338.34
2023-02-11T09:38:54.955Z,100340.94
2023-02-11T09:39:56.895Z,100340.94
2023-02-11T09:40:58.857Z,100345.31
2023-02-11T09:42:35.127Z,100334.91
2023-02-11T09:43:46.780Z,100333.19
2023-02-11T09:44:49.300Z,100338.38
2023-02-11T09:45:55.059Z,100340.06
2023-02-11T09:47:21.488Z,100340.06
2023-02-11T09:48:24.009Z,100347.00
2023-02-11T09:49:39.247Z,100340.97
2023-02-11T09:50:44.557Z,100335.81
2023-02-11T09:51:58.149Z,100340.25
2023-02-11T09:53:05.787Z,100336.84
2023-02-11T09:54:22.126Z,100337.78
2023-02-11T09:55:39.844Z,100340.44
2023-02-11T09:56:41.755Z,100336.97
2023-02-11T09:57:43.671Z,100343.06
2023-02-11T09:58:45.738Z,100331.81
2023-02-11T09:59:49.497Z,100336.16
2023-02-11T10:01:08.829Z,100344.00
2023-02-11T10:02:31.189Z,100343.09
2023-02-11T10:03:50.591Z,100338.75
2023-02-11T10:05:20.569Z,100337.84
2023-02-11T10:06:39.314Z,100344.69
2023-02-11T10:08:05.745Z,100345.47
2023-02-11T10:09:19.947Z,100345.38
2023-02-11T10:10:40.156Z,100348.78
2023-02-11T10:12:06.435Z,100346.19
2023-02-11T10:13:43.767Z,100348.84
2023-02-11T10:15:04.143Z,100352.31
2023-02-11T10:16:44.300Z,100343.69
2023-02-11T10:17:52.183Z,100345.41
2023-02-11T10:18:56.846Z,100352.34
2023-02-11T10:20:30.371Z,100356.72
2023-02-11T10:22:15.296Z,100354.19
2023-02-11T10:23:22.707Z,100355.91
2023-02-11T10:24:25.708Z,100361.97
2023-02-11T10:25:34.760Z,100357.63
2023-02-11T10:26:38.669Z,100359.25
2023-02-11T10:27:40.473Z,100360.09
2023-02-11T10:28:46.418Z,100358.38
2023-02-11T10:30:02.772Z,100362.75
2023-02-11T10:31:19.834Z,100355.88
2023-02-11T10:32:32.527Z,100348.94
2023-02-11T10:33:51.333Z,100359.34
2023-02-11T10:34:59.120Z,100354.13
2023-02-11T10:36:01.157Z,100359.34
2023-02-11T10:37:03.953Z,100360.19
2023-02-11T10:38:06.040Z,100355.91
2023-02-11T10:39:10.895Z,100354.13
2023-02-11T10:40:25.590Z,100361.13
2023-02-11T10:41:33.890Z,100361.13
2023-02-11T10:42:36.537Z,100346.34
2023-02-11T10:43:38.658Z,100348.97
2023-02-11T10:44:49.745Z,100354.19
2023-02-11T10:45:53.816Z,100349.94
2023-02-11T10:46:57.730Z,100355.19
2023-02-11T10:48:01.706Z,100356.97
2023-02-11T10:49:04.029Z,100348.31
2023-02-11T10:50:38.647Z,100349.28
2023-02-11T10:51:40.585Z,100352.72
2023-02-11T10:52:42.459Z,100354.50
2023-02-11T10:53:46.119Z,100357.09
2023-02-11T10:54:58.418Z,100340.63
2023-02-11T10:56:00.336Z,100355.41
2023-02-11T10:57:02.352Z,100351.03
2023-02-11T10:58:04.897Z,100343.19
2023-02-11T10:59:28.406Z,100346.66
2023-02-11T11:00:36.941Z,100353.50
2023-02-11T11:01:54.144Z,100350.03
2023-02-11T11:02:59.074Z,100347.44
2023-02-11T11:04:00.965Z,100349.16
2023-02-11T11:05:30.653Z,100349.25
2023-02-11T11:06:33.978Z,100341.41
2023-02-11T11:07:37.253Z,100350.06
2023-02-11T11:08:44.815Z,100344.88
2023-02-11T11:10:02.753Z,100344.88
2023-02-11T11:11:08.712Z,100344.00
2023-02-11T11:12:29.258Z,100348.31
2023-02-11T11:13:40.524Z,100344.81
2023-02-11T11:14:54.740Z,100338.75
2023-02-11T11:16:15.010Z,100349.16
2023-02-11T11:17:18.990Z,100349.13
2023-02-11T11:18:23.224Z,100350.84
2023-02-11T11:19:26.097Z,100354.28
2023-02-11T11:20:35.466Z,100356.06
2023-02-11T11:21:45.138Z,100357.75
2023-02-11T11:22:49.273Z,100364.69
2023-02-11T11:24:00.009Z,100361.25
2023-02-11T11:25:01.960Z,100361.25
2023-02-11T11:26:10.743Z,100368.19
2023-02-11T11:27:22.171Z,100361.25
2023-02-11T11:28:26.779Z,100361.25
2023-02-11T11:29:46.262Z,100360.38
2023-02-11T11:30:48.517Z,100363.84
2023-02-11T11:32:04.734Z,100364.75
2023-02-11T11:33:21.023Z,100366.50
2023-02-11T11:34:31.867Z,100359.56
2023-02-11T11:35:33.859Z,100357.84
2023-02-11T11:36:39.198Z,100354.34
2023-02-11T11:37:42.426Z,100356.91
2023-02-11T11:38:49.473Z,100359.47
2023-02-11T11:40:00.702Z,100356.84
2023-02-11T11:41:20.949Z,100355.09
2023-02-11T11:42:34.023Z,100362.09
2023-02-11T11:43:37.754Z,100362.94
2023-02-11T11:44:42.484Z,100359.44
2023-02-11T11:46:01.218Z,100361.22
2023-02-11T11:47:12.326Z,100357.75
2023-02-11T11:48:22.965Z,100351.69
2023-02-11T11:49:36.854Z,100360.38
2023-02-11T11:50:56.488Z,100352.59
2023-02-11T11:52:18.361Z,100357.78
2023-02-11T11:54:04.390Z,100366.50
2023-02-11T11:55:17.910Z,100363.00
2023-02-11T11:56:26.993Z,100366.47
2023-02-11T11:57:30.899Z,100372.50
2023-02-11T11:58:33.805Z,100372.50
2023-02-11T11:59:37.291Z,100376.81
2023-02-11T12:01:20.864Z,100371.63
2023-02-11T12:02:25.744Z,100372.44
2023-02-11T12:03:55.332Z,100375.03
2023-02-11T12:05:02.177Z,100385.44
2023-02-11T12:06:13.776Z,100380.19
2023-02-11T12:07:27.842Z,100381.91
2023-02-11T12:08:41.441Z,100386.22
2023-02-11T12:09:58.664Z,100385.34
2023-02-11T12:11:17.028Z,100384.47
2023-02-11T12:12:32.664Z,100381.00
2023-02-11T12:14:09.718Z,100378.41
2023-02-11T12:15:31.507Z,100376.72
2023-02-11T12:16:54.659Z,100376.72
2023-02-11T12:18:15.174Z,100381.06
2023-02-11T12:19:35.495Z,100377.59
2023-02-11T12:20:40.244Z,100380.19
2023-02-11T12:22:44.147Z,100386.31
2023-02-11T12:23:49.106Z,100383.66
2023-02-11T12:25:18.961Z,100387.94
2023-02-11T12:26:24.189Z,100387.06
2023-02-11T12:27:45.303Z,100382.75
2023-02-11T12:29:14.515Z,100377.53
2023-02-11T12:30:50.795Z,100377.53
2023-02-11T12:32:04.843Z,100381.88
2023-02-11T12:33:32.464Z,100381.00
2023-02-11T12:35:06.891Z,100386.25
2023-02-11T12:36:34.523Z,100382.75
2023-02-11T12:38:16.296Z,100382.78
2023-02-11T12:39:26.863Z,100374.13